Terminal Aerodrome Forecast
Issued by NWS

Home | Current Version | Previous Version | Text Only | Print | Product List | Glossary On
Versions: 1 2 3 4 5 6 7 8 9 10 11 12 13 14 15 16 17 18 19 20 21 22 23 24 25 26 27 28 29 30 31 32 33
000
FTUS44 KHGX 261222 AAA
TAFIAH
TAF AMD
KIAH 261222Z 2612/2718 17006KT P6SM OVC030
     FM261400 19013G23KT P6SM BKN028
     FM261900 18011G21KT P6SM SCT035
     FM270300 18008KT P6SM BKN023
     FM271500 18012KT P6SM BKN030=

USA.gov is the U.S. government's official web portal to all federal, state and local government web resources and services.